createdAt,value
2019-06-07T00:00:38.853Z,33.30
2019-06-07T00:01:22.545Z,32.90
2019-06-07T00:02:22.537Z,31.90
2019-06-07T00:03:29.116Z,32.70
2019-06-07T00:04:22.500Z,32.90
2019-06-07T00:05:22.502Z,33.60
2019-06-07T00:06:25.465Z,34.90
2019-06-07T00:07:22.457Z,35.10
2019-06-07T00:08:27.866Z,34.80
2019-06-07T00:09:22.854Z,35.10
2019-06-07T00:10:36.208Z,34.20
2019-06-07T00:11:22.408Z,33.80
2019-06-07T00:12:22.404Z,32.70
2019-06-07T00:13:22.608Z,30.70
2019-06-07T00:14:22.396Z,31.00
2019-06-07T00:15:28.710Z,30.50
2019-06-07T00:16:23.453Z,31.40
2019-06-07T00:17:22.337Z,31.70
2019-06-07T00:18:25.854Z,31.60
2019-06-07T00:19:22.322Z,31.70
2019-06-07T00:20:23.676Z,30.60
2019-06-07T00:22:12.340Z,32.70
2019-06-07T00:22:32.158Z,38.10
2019-06-07T00:23:22.907Z,46.00
2019-06-07T00:24:22.302Z,44.90
2019-06-07T00:25:24.443Z,42.30
2019-06-07T00:26:22.232Z,38.00
2019-06-07T00:27:22.604Z,35.60
2019-06-07T00:28:22.198Z,31.30
2019-06-07T00:29:22.274Z,30.20
2019-06-07T00:30:50.505Z,31.10
2019-06-07T00:31:24.079Z,30.60
2019-06-07T00:32:22.379Z,31.60
2019-06-07T00:33:24.751Z,30.90
2019-06-07T00:34:23.004Z,29.50
2019-06-07T00:35:22.527Z,30.30
2019-06-07T00:36:23.218Z,29.80
2019-06-07T00:37:25.219Z,31.50
2019-06-07T00:38:22.139Z,31.30
2019-06-07T00:39:25.290Z,31.70
2019-06-07T00:40:31.503Z,31.60
2019-06-07T00:41:22.297Z,31.00
2019-06-07T00:42:24.280Z,30.40
2019-06-07T00:43:27.973Z,31.10
2019-06-07T00:44:23.428Z,32.20
2019-06-07T00:45:24.467Z,32.00
2019-06-07T00:46:25.291Z,31.80
2019-06-07T00:47:25.032Z,32.50
2019-06-07T00:48:31.773Z,29.90
2019-06-07T00:49:39.845Z,32.50
2019-06-07T00:50:24.103Z,33.20
2019-06-07T00:51:23.916Z,31.70
2019-06-07T00:53:12.832Z,32.10
2019-06-07T00:53:31.819Z,30.20
2019-06-07T00:54:24.060Z,32.20
2019-06-07T00:55:27.075Z,31.80
2019-06-07T00:56:23.389Z,30.50
2019-06-07T00:57:24.129Z,31.10
2019-06-07T00:58:27.165Z,31.20
2019-06-07T00:59:28.414Z,32.10
2019-06-07T01:00:23.605Z,30.10
2019-06-07T01:01:24.874Z,30.90
2019-06-07T01:02:25.915Z,30.70
2019-06-07T01:03:25.193Z,30.50
2019-06-07T01:04:23.683Z,29.10
2019-06-07T01:05:26.104Z,30.20
2019-06-07T01:06:24.474Z,30.30
2019-06-07T01:07:21.983Z,27.80
2019-06-07T01:08:22.741Z,29.60
2019-06-07T01:09:23.968Z,28.00
2019-06-07T01:10:51.099Z,28.10
2019-06-07T01:11:23.473Z,28.90
2019-06-07T01:12:23.578Z,27.30
2019-06-07T01:13:23.865Z,29.90
2019-06-07T01:14:24.059Z,29.30
2019-06-07T01:15:25.607Z,29.40
2019-06-07T01:16:23.438Z,30.30
2019-06-07T01:17:33.123Z,30.70
2019-06-07T01:18:41.169Z,29.40
2019-06-07T01:19:25.917Z,28.50
2019-06-07T01:20:24.206Z,28.70
2019-06-07T01:21:28.117Z,27.80
2019-06-07T01:22:23.581Z,28.80
2019-06-07T01:24:00.809Z,27.90
2019-06-07T01:24:24.539Z,29.40
2019-06-07T01:25:23.761Z,28.40
2019-06-07T01:26:23.787Z,30.50
2019-06-07T01:27:24.204Z,29.00
2019-06-07T01:28:24.318Z,29.20
2019-06-07T01:29:22.271Z,29.20
2019-06-07T01:30:24.112Z,28.00
2019-06-07T01:31:24.539Z,26.40
2019-06-07T01:32:23.878Z,26.60
2019-06-07T01:33:23.479Z,25.70
2019-06-07T01:34:25.181Z,29.30
2019-06-07T01:35:22.086Z,26.20
2019-06-07T01:36:22.358Z,30.90
2019-06-07T01:37:24.905Z,29.70
2019-06-07T01:38:23.889Z,27.80
2019-06-07T01:39:23.770Z,28.20
2019-06-07T01:40:28.851Z,28.10
2019-06-07T01:41:23.657Z,29.80
2019-06-07T01:42:22.638Z,30.70
2019-06-07T01:43:26.098Z,30.60
2019-06-07T01:44:25.218Z,29.90
2019-06-07T01:45:21.392Z,28.60
2019-06-07T01:46:23.355Z,28.80
2019-06-07T01:47:24.743Z,29.10
2019-06-07T01:48:23.611Z,28.80
2019-06-07T01:49:22.159Z,29.60
2019-06-07T01:50:24.375Z,30.40
2019-06-07T01:51:21.925Z,29.70
2019-06-07T01:52:23.513Z,28.10
2019-06-07T01:53:23.695Z,27.80
2019-06-07T01:55:23.626Z,28.60
2019-06-07T01:56:22.548Z,27.90
2019-06-07T01:57:38.444Z,28.70
2019-06-07T01:58:22.242Z,27.20
2019-06-07T01:59:22.899Z,27.70
2019-06-07T02:00:21.998Z,29.60
2019-06-07T02:01:21.670Z,27.20
2019-06-07T02:02:22.776Z,26.80
2019-06-07T02:03:22.280Z,26.80
2019-06-07T02:04:23.323Z,26.70
2019-06-07T02:05:23.155Z,26.90
2019-06-07T02:06:21.693Z,27.40
2019-06-07T02:07:25.820Z,27.60
2019-06-07T02:08:22.217Z,27.10
2019-06-07T02:09:21.023Z,26.80
2019-06-07T02:10:24.726Z,26.80
2019-06-07T02:11:22.004Z,27.80
2019-06-07T02:12:28.148Z,26.10
2019-06-07T02:13:21.210Z,26.70
2019-06-07T02:14:23.538Z,25.60
2019-06-07T02:15:23.008Z,27.10
2019-06-07T02:16:21.823Z,26.30
2019-06-07T02:17:24.008Z,27.20
2019-06-07T02:18:22.955Z,26.80
2019-06-07T02:19:22.011Z,26.70
2019-06-07T02:20:22.960Z,27.70
2019-06-07T02:21:23.179Z,28.40
2019-06-07T02:22:22.898Z,27.70
2019-06-07T02:23:23.164Z,28.90
2019-06-07T02:24:24.481Z,29.10
2019-06-07T02:25:41.931Z,28.30
2019-06-07T02:26:20.748Z,29.50
2019-06-07T02:27:20.829Z,27.50
2019-06-07T02:28:42.251Z,28.60
2019-06-07T02:29:20.703Z,27.80
2019-06-07T02:30:44.249Z,28.20
2019-06-07T02:31:21.716Z,28.50
2019-06-07T02:32:21.722Z,28.40
2019-06-07T02:33:25.810Z,27.30
2019-06-07T02:34:21.514Z,29.00
2019-06-07T02:35:25.623Z,28.90
2019-06-07T02:36:25.621Z,29.20
2019-06-07T02:37:21.604Z,30.30
2019-06-07T02:38:22.253Z,30.20
2019-06-07T02:39:23.314Z,29.50
2019-06-07T02:40:21.933Z,31.10
2019-06-07T02:41:22.908Z,30.00
2019-06-07T02:42:25.221Z,30.90
2019-06-07T02:43:22.077Z,31.50
2019-06-07T02:44:20.524Z,30.90
2019-06-07T02:45:20.514Z,31.20
2019-06-07T02:46:28.018Z,32.90
2019-06-07T02:47:20.481Z,33.80
2019-06-07T02:48:20.518Z,33.20
2019-06-07T02:49:20.564Z,30.90
2019-06-07T02:50:20.455Z,32.10
2019-06-07T02:51:20.439Z,31.10
2019-06-07T02:52:20.477Z,30.40
2019-06-07T02:53:20.404Z,32.60
2019-06-07T02:54:20.398Z,32.30
2019-06-07T02:55:20.388Z,31.10
2019-06-07T02:56:42.101Z,31.10
2019-06-07T02:57:20.356Z,32.30
2019-06-07T02:58:20.341Z,31.70
2019-06-07T02:59:42.172Z,32.90
2019-06-07T03:00:41.978Z,31.90
2019-06-07T03:01:20.304Z,33.20
2019-06-07T03:02:20.301Z,34.30
2019-06-07T03:03:21.947Z,33.30
2019-06-07T03:04:20.265Z,34.30
2019-06-07T03:05:20.289Z,32.10
2019-06-07T03:06:20.236Z,33.80
2019-06-07T03:07:20.228Z,33.70
2019-06-07T03:08:20.230Z,31.90
2019-06-07T03:09:20.182Z,32.10
2019-06-07T03:10:20.215Z,32.50
2019-06-07T03:11:20.192Z,30.40
2019-06-07T03:12:20.168Z,30.30
2019-06-07T03:13:20.144Z,29.40
2019-06-07T03:14:20.141Z,29.60
2019-06-07T03:15:32.773Z,28.20
2019-06-07T03:16:20.116Z,29.90
2019-06-07T03:17:20.097Z,28.10
2019-06-07T03:18:20.095Z,29.30
2019-06-07T03:19:20.075Z,29.40
2019-06-07T03:20:20.053Z,27.50
2019-06-07T03:21:20.055Z,26.80
2019-06-07T03:22:20.017Z,24.90
2019-06-07T03:23:20.034Z,23.00
2019-06-07T03:24:20.001Z,23.90
2019-06-07T03:25:19.991Z,24.90
2019-06-07T03:26:19.966Z,23.70
2019-06-07T03:27:44.168Z,21.80
2019-06-07T03:28:20.002Z,21.70
2019-06-07T03:29:19.962Z,23.90
2019-06-07T03:30:46.540Z,22.50
2019-06-07T03:31:19.956Z,21.40
2019-06-07T03:32:19.960Z,23.20
2019-06-07T03:33:19.894Z,18.60
2019-06-07T03:34:19.875Z,19.70
2019-06-07T03:35:19.875Z,19.20
2019-06-07T03:36:25.646Z,18.20
2019-06-07T03:37:19.842Z,19.30
2019-06-07T03:38:19.838Z,16.30
2019-06-07T03:39:19.924Z,17.90
2019-06-07T03:40:19.805Z,15.00
2019-06-07T03:41:19.787Z,13.20
2019-06-07T03:42:19.773Z,15.10
2019-06-07T03:43:19.754Z,14.60
2019-06-07T03:44:19.757Z,16.60
2019-06-07T03:45:19.723Z,14.70
2019-06-07T03:46:19.746Z,16.20
2019-06-07T03:47:19.717Z,13.90
2019-06-07T03:48:19.723Z,17.30
2019-06-07T03:49:19.688Z,17.10
2019-06-07T03:50:19.693Z,15.40
2019-06-07T03:51:25.202Z,13.90
2019-06-07T03:52:19.667Z,13.90
2019-06-07T03:53:19.633Z,13.70
2019-06-07T03:54:19.635Z,14.90
2019-06-07T03:55:19.623Z,15.90
2019-06-07T03:56:19.582Z,13.80
2019-06-07T03:57:19.603Z,12.70
2019-06-07T03:58:46.222Z,10.60
2019-06-07T03:59:19.577Z,13.10
2019-06-07T04:00:19.544Z,12.20
2019-06-07T04:01:19.532Z,11.90
2019-06-07T04:02:19.518Z,10.90
2019-06-07T04:03:33.273Z,10.60
2019-06-07T04:04:19.489Z,11.60
2019-06-07T04:05:19.487Z,11.60
2019-06-07T04:06:19.491Z,10.50
2019-06-07T04:07:19.474Z,10.20
2019-06-07T04:08:19.541Z,11.80
2019-06-07T04:09:19.482Z,10.90
2019-06-07T04:10:19.434Z,12.30
2019-06-07T04:11:19.419Z,11.30
2019-06-07T04:12:19.419Z,10.30
2019-06-07T04:13:19.443Z,11.00
2019-06-07T04:14:19.591Z,10.20
2019-06-07T04:15:24.407Z,10.40
2019-06-07T04:16:25.609Z,10.10
2019-06-07T04:17:19.337Z,11.70
2019-06-07T04:18:19.316Z,10.20
2019-06-07T04:19:19.312Z,12.80
2019-06-07T04:20:19.311Z,10.00
2019-06-07T04:21:19.308Z,10.40
2019-06-07T04:22:19.284Z,10.20
2019-06-07T04:23:29.988Z,13.20
2019-06-07T04:24:19.247Z,10.40
2019-06-07T04:25:19.244Z,11.30
2019-06-07T04:26:19.247Z,12.20
2019-06-07T04:27:19.203Z,10.80
2019-06-07T04:28:19.207Z,12.00
2019-06-07T04:29:56.850Z,11.40
2019-06-07T04:30:19.169Z,13.00
2019-06-07T04:31:19.155Z,12.60
2019-06-07T04:32:19.147Z,10.70
2019-06-07T04:33:19.175Z,11.10
2019-06-07T04:34:19.129Z,10.30
2019-06-07T04:35:19.138Z,9.40
2019-06-07T04:36:37.317Z,9.80
2019-06-07T04:37:19.082Z,10.50
2019-06-07T04:38:19.073Z,10.10
2019-06-07T04:39:19.303Z,9.80
2019-06-07T04:40:19.054Z,12.00
2019-06-07T04:41:19.042Z,10.80
2019-06-07T04:42:19.018Z,13.10
2019-06-07T04:43:18.999Z,10.50
2019-06-07T04:44:19.003Z,12.20
2019-06-07T04:45:34.020Z,9.20
2019-06-07T04:46:19.006Z,10.20
2019-06-07T04:47:18.997Z,9.90
2019-06-07T04:48:18.955Z,9.10
2019-06-07T04:49:18.967Z,10.10
2019-06-07T04:50:18.941Z,9.60
2019-06-07T04:51:18.913Z,10.10
2019-06-07T04:52:18.902Z,10.40
2019-06-07T04:53:18.875Z,11.60
2019-06-07T04:54:18.882Z,11.20
2019-06-07T04:55:18.862Z,8.90
2019-06-07T04:56:18.837Z,9.70
2019-06-07T04:57:18.851Z,10.20
2019-06-07T04:58:18.817Z,9.50
2019-06-07T05:00:00.426Z,9.90
2019-06-07T05:00:48.770Z,9.00
2019-06-07T05:01:27.232Z,10.20
2019-06-07T05:02:18.779Z,10.30
2019-06-07T05:03:18.765Z,9.30
2019-06-07T05:04:18.795Z,9.40
2019-06-07T05:05:18.745Z,9.80
2019-06-07T05:06:18.709Z,9.30
2019-06-07T05:07:18.712Z,10.00
2019-06-07T05:08:28.142Z,9.80
2019-06-07T05:09:18.724Z,10.20
2019-06-07T05:10:18.675Z,11.30
2019-06-07T05:11:18.699Z,11.10
2019-06-07T05:12:18.647Z,9.90
2019-06-07T05:13:18.630Z,9.10
2019-06-07T05:14:18.630Z,11.10
2019-06-07T05:15:18.590Z,9.90
2019-06-07T05:16:18.590Z,10.60
2019-06-07T05:17:18.580Z,9.90
2019-06-07T05:18:18.552Z,11.20
2019-06-07T05:19:18.533Z,10.20
2019-06-07T05:20:18.528Z,9.90
2019-06-07T05:21:18.533Z,11.00
2019-06-07T05:22:18.499Z,11.10
2019-06-07T05:23:59.952Z,9.80
2019-06-07T05:24:18.486Z,11.60
2019-06-07T05:25:18.465Z,9.80
2019-06-07T05:26:18.476Z,11.10
2019-06-07T05:27:18.480Z,11.50
2019-06-07T05:28:18.440Z,11.00
2019-06-07T05:29:18.470Z,10.00
2019-06-07T05:30:56.417Z,9.40
2019-06-07T05:31:18.436Z,11.00
2019-06-07T05:32:18.369Z,11.60
2019-06-07T05:33:18.356Z,11.70
2019-06-07T05:34:18.358Z,12.60
2019-06-07T05:35:18.354Z,11.10
2019-06-07T05:36:18.341Z,12.50
2019-06-07T05:37:18.341Z,11.10
2019-06-07T05:38:18.322Z,10.30
2019-06-07T05:39:18.306Z,13.30
2019-06-07T05:40:18.294Z,12.70
2019-06-07T05:41:18.266Z,13.40
2019-06-07T05:42:18.248Z,11.80
2019-06-07T05:43:18.282Z,10.30
2019-06-07T05:44:18.223Z,10.70
2019-06-07T05:45:18.204Z,13.50
2019-06-07T05:46:18.202Z,11.70
2019-06-07T05:47:18.208Z,13.30
2019-06-07T05:48:18.170Z,12.80
2019-06-07T05:49:18.175Z,11.30
2019-06-07T05:50:38.396Z,13.20
2019-06-07T05:51:18.157Z,12.00
2019-06-07T05:52:18.125Z,14.30
2019-06-07T05:53:18.107Z,14.90
2019-06-07T05:54:18.123Z,15.00
2019-06-07T05:55:18.109Z,14.80
2019-06-07T05:56:18.145Z,11.10
2019-06-07T05:57:18.061Z,13.40
2019-06-07T05:58:18.127Z,14.30
2019-06-07T05:59:18.038Z,12.50
2019-06-07T06:00:18.017Z,12.70
2019-06-07T06:02:22.690Z,12.90
2019-06-07T06:03:17.980Z,14.90
2019-06-07T06:04:17.975Z,12.10
2019-06-07T06:05:32.342Z,13.00
2019-06-07T06:06:18.137Z,14.50
2019-06-07T06:07:17.975Z,14.90
2019-06-07T06:08:17.915Z,16.70
2019-06-07T06:09:17.922Z,17.10
2019-06-07T06:10:17.913Z,13.80
2019-06-07T06:11:17.864Z,13.20
2019-06-07T06:12:34.254Z,14.40
2019-06-07T06:13:17.849Z,14.00
2019-06-07T06:14:17.851Z,13.60
2019-06-07T06:15:17.848Z,14.20
2019-06-07T06:16:17.800Z,16.40
2019-06-07T06:17:17.813Z,13.20
2019-06-07T06:18:17.795Z,16.80
2019-06-07T06:19:17.770Z,16.50
2019-06-07T06:20:17.814Z,14.40
2019-06-07T06:21:20.131Z,16.40
2019-06-07T06:22:17.750Z,14.50
2019-06-07T06:23:17.731Z,17.40
2019-06-07T06:24:17.725Z,14.20
2019-06-07T06:25:31.584Z,13.10
2019-06-07T06:26:17.698Z,15.30
2019-06-07T06:27:55.680Z,14.00
2019-06-07T06:28:17.670Z,16.90
2019-06-07T06:29:17.645Z,14.00
2019-06-07T06:30:17.643Z,17.30
2019-06-07T06:31:17.637Z,14.80
2019-06-07T06:32:48.871Z,14.60
2019-06-07T06:33:33.241Z,17.40
2019-06-07T06:34:17.586Z,16.60
2019-06-07T06:35:17.563Z,16.70
2019-06-07T06:36:17.717Z,15.70
2019-06-07T06:37:17.587Z,17.40
2019-06-07T06:38:17.532Z,18.40
2019-06-07T06:39:17.613Z,14.50
2019-06-07T06:40:17.515Z,15.60
2019-06-07T06:41:17.536Z,17.00
2019-06-07T06:42:17.495Z,16.30
2019-06-07T06:43:17.460Z,17.50
2019-06-07T06:44:17.438Z,17.90
2019-06-07T06:45:17.437Z,16.80
2019-06-07T06:46:37.554Z,18.50
2019-06-07T06:47:17.427Z,15.90
2019-06-07T06:48:17.449Z,15.70
2019-06-07T06:49:17.382Z,18.00
2019-06-07T06:50:17.363Z,16.70
2019-06-07T06:51:17.369Z,16.50
2019-06-07T06:52:17.331Z,17.50
2019-06-07T06:53:17.344Z,18.20
2019-06-07T06:54:38.951Z,17.90
2019-06-07T06:55:17.308Z,17.20
2019-06-07T06:56:17.278Z,17.40
2019-06-07T06:57:19.919Z,19.30
2019-06-07T06:58:17.278Z,16.60
2019-06-07T07:00:17.253Z,17.60
2019-06-07T07:01:17.247Z,16.70
2019-06-07T07:02:17.210Z,16.90
2019-06-07T07:04:17.222Z,18.30
2019-06-07T07:05:17.174Z,22.20
2019-06-07T07:06:26.082Z,18.10
2019-06-07T07:07:17.147Z,18.40
2019-06-07T07:08:17.141Z,17.20
2019-06-07T07:09:17.126Z,19.60
2019-06-07T07:10:17.110Z,17.50
2019-06-07T07:11:17.087Z,17.90
2019-06-07T07:12:17.081Z,19.40
2019-06-07T07:13:17.067Z,18.50
2019-06-07T07:14:17.065Z,20.40
2019-06-07T07:15:17.044Z,18.00
2019-06-07T07:16:17.028Z,18.10
2019-06-07T07:17:17.029Z,19.10
2019-06-07T07:18:16.996Z,18.90
2019-06-07T07:19:17.005Z,19.90
2019-06-07T07:20:16.979Z,18.00
2019-06-07T07:21:16.952Z,19.90
2019-06-07T07:22:16.958Z,18.00
2019-06-07T07:23:17.383Z,20.70
2019-06-07T07:24:21.582Z,18.00
2019-06-07T07:25:16.922Z,17.50
2019-06-07T07:26:16.914Z,17.70
2019-06-07T07:27:16.900Z,19.40
2019-06-07T07:28:16.880Z,19.40
2019-06-07T07:29:16.870Z,20.30
2019-06-07T07:30:36.177Z,16.60
2019-06-07T07:31:16.819Z,20.00
2019-06-07T07:32:16.834Z,17.70
2019-06-07T07:33:16.952Z,16.70
2019-06-07T07:34:36.642Z,18.50
2019-06-07T07:35:16.793Z,16.50
2019-06-07T07:36:35.577Z,16.40
2019-06-07T07:37:16.761Z,17.40
2019-06-07T07:38:16.732Z,17.80
2019-06-07T07:39:17.312Z,16.70
2019-06-07T07:41:16.762Z,17.50
2019-06-07T07:42:21.345Z,17.20
2019-06-07T07:43:16.752Z,18.60
2019-06-07T07:44:16.683Z,17.80
2019-06-07T07:45:16.669Z,17.00
2019-06-07T07:46:31.063Z,16.60
2019-06-07T07:47:16.635Z,16.30
2019-06-07T07:48:18.464Z,17.60
2019-06-07T07:49:16.585Z,16.40
2019-06-07T07:50:16.594Z,16.00
2019-06-07T07:51:16.565Z,16.90
2019-06-07T07:52:16.567Z,16.80
2019-06-07T07:53:16.567Z,15.00
2019-06-07T07:54:16.532Z,15.50
2019-06-07T07:55:16.590Z,15.20
2019-06-07T07:56:16.494Z,14.80
2019-06-07T07:57:16.502Z,15.90
2019-06-07T07:58:16.530Z,16.10
2019-06-07T07:59:16.453Z,16.50
2019-06-07T08:00:49.709Z,16.10
2019-06-07T08:01:16.425Z,18.60
2019-06-07T08:02:16.439Z,15.90
2019-06-07T08:03:16.396Z,15.70
2019-06-07T08:04:16.389Z,17.10
2019-06-07T08:05:28.758Z,17.50
2019-06-07T08:06:16.363Z,17.60
2019-06-07T08:07:16.365Z,18.90
2019-06-07T08:08:16.348Z,18.40
2019-06-07T08:09:16.342Z,18.30
2019-06-07T08:10:16.330Z,19.40
2019-06-07T08:11:16.298Z,18.50
2019-06-07T08:12:16.332Z,19.40
2019-06-07T08:13:24.927Z,17.60
2019-06-07T08:14:16.284Z,21.90
2019-06-07T08:15:16.253Z,16.80
2019-06-07T08:16:18.719Z,18.50
2019-06-07T08:17:16.237Z,19.10
2019-06-07T08:18:16.201Z,16.00
2019-06-07T08:19:16.196Z,16.60
2019-06-07T08:20:16.179Z,16.60
2019-06-07T08:21:25.975Z,19.50
2019-06-07T08:22:16.166Z,18.00
2019-06-07T08:23:16.139Z,16.80
2019-06-07T08:24:16.127Z,19.40
2019-06-07T08:25:16.120Z,18.80
2019-06-07T08:26:16.138Z,18.40
2019-06-07T08:27:25.986Z,20.30
2019-06-07T08:28:16.076Z,20.30
2019-06-07T08:29:16.040Z,17.80
2019-06-07T08:30:47.154Z,17.90
2019-06-07T08:31:16.043Z,20.10
2019-06-07T08:32:16.010Z,18.50
2019-06-07T08:33:26.051Z,19.20
2019-06-07T08:34:15.976Z,18.10
2019-06-07T08:36:02.577Z,20.10
2019-06-07T08:36:25.098Z,20.30
2019-06-07T08:37:15.952Z,22.90
2019-06-07T08:38:26.509Z,19.90
2019-06-07T08:39:15.924Z,19.00
2019-06-07T08:40:15.914Z,17.50
2019-06-07T08:41:15.912Z,18.50
2019-06-07T08:42:21.621Z,19.70
2019-06-07T08:43:20.870Z,18.70
2019-06-07T08:44:23.656Z,19.90
2019-06-07T08:45:15.882Z,20.20
2019-06-07T08:46:15.869Z,18.40
2019-06-07T08:47:20.540Z,20.80
2019-06-07T08:48:27.615Z,20.60
2019-06-07T08:49:15.783Z,22.10
2019-06-07T08:50:15.776Z,19.00
2019-06-07T08:51:15.793Z,19.10
2019-06-07T08:52:15.759Z,21.50
2019-06-07T08:53:15.730Z,20.70
2019-06-07T08:54:23.007Z,20.00
2019-06-07T08:55:15.745Z,20.40
2019-06-07T08:56:15.690Z,21.60
2019-06-07T08:57:21.097Z,20.00
2019-06-07T08:58:15.650Z,18.90
2019-06-07T08:59:15.694Z,20.10
2019-06-07T09:00:42.931Z,21.40
2019-06-07T09:01:15.621Z,19.50
2019-06-07T09:02:23.794Z,22.30
2019-06-07T09:03:15.585Z,24.30
2019-06-07T09:04:15.585Z,22.90
2019-06-07T09:05:15.607Z,19.50
2019-06-07T09:07:01.121Z,20.20
2019-06-07T09:07:20.006Z,19.50
2019-06-07T09:08:29.102Z,19.50
2019-06-07T09:09:15.530Z,19.50
2019-06-07T09:10:15.742Z,18.10
2019-06-07T09:11:15.480Z,19.60
2019-06-07T09:12:15.663Z,19.20
2019-06-07T09:13:15.462Z,20.00
2019-06-07T09:14:15.433Z,18.10
2019-06-07T09:15:23.254Z,18.20
2019-06-07T09:16:15.428Z,21.70
2019-06-07T09:17:15.458Z,17.60
2019-06-07T09:18:42.044Z,18.80
2019-06-07T09:19:15.365Z,17.80
2019-06-07T09:20:35.230Z,18.00
2019-06-07T09:21:15.343Z,19.20
2019-06-07T09:22:15.343Z,18.40
2019-06-07T09:23:17.118Z,19.70
2019-06-07T09:24:15.311Z,19.40
2019-06-07T09:25:21.018Z,21.30
2019-06-07T09:26:18.209Z,19.20
2019-06-07T09:27:15.269Z,21.60
2019-06-07T09:28:19.910Z,19.30
2019-06-07T09:29:15.242Z,21.40
2019-06-07T09:30:18.588Z,20.20
2019-06-07T09:31:15.249Z,19.90
2019-06-07T09:32:18.381Z,19.10
2019-06-07T09:33:15.176Z,19.80
2019-06-07T09:34:15.597Z,23.40
2019-06-07T09:35:17.548Z,20.40
2019-06-07T09:36:15.134Z,19.00
2019-06-07T09:38:02.772Z,20.60
2019-06-07T09:38:24.992Z,20.40
2019-06-07T09:39:15.100Z,20.10
2019-06-07T09:40:24.909Z,21.70
2019-06-07T09:41:15.062Z,20.50
2019-06-07T09:42:15.058Z,22.30
2019-06-07T09:44:25.107Z,20.00
2019-06-07T09:45:15.026Z,20.90
2019-06-07T09:47:20.665Z,24.50
2019-06-07T09:47:44.017Z,18.90
2019-06-07T09:49:44.011Z,19.60
2019-06-07T09:50:43.980Z,19.70
2019-06-07T09:51:43.973Z,21.10
2019-06-07T09:52:57.796Z,21.00
2019-06-07T09:53:43.958Z,19.70
2019-06-07T09:55:06.146Z,21.70
2019-06-07T09:55:43.931Z,20.30
2019-06-07T09:56:43.916Z,19.70
2019-06-07T09:57:43.875Z,20.30
2019-06-07T09:58:53.365Z,21.70
2019-06-07T09:59:43.855Z,21.20
2019-06-07T10:00:43.860Z,22.10
2019-06-07T10:01:43.834Z,22.90
2019-06-07T10:02:43.896Z,24.50
2019-06-07T10:03:43.815Z,22.60
2019-06-07T10:04:43.796Z,22.90
2019-06-07T10:05:43.782Z,23.30
2019-06-07T10:06:43.783Z,23.50
2019-06-07T10:07:59.570Z,22.00
2019-06-07T10:10:43.717Z,22.70
2019-06-07T10:11:43.737Z,23.20
2019-06-07T10:12:43.676Z,24.30
2019-06-07T10:13:43.675Z,24.00
2019-06-07T10:14:45.197Z,23.10
2019-06-07T10:15:43.650Z,24.50
2019-06-07T10:16:46.874Z,24.00
2019-06-07T10:17:43.620Z,22.70
2019-06-07T10:18:43.586Z,21.10
2019-06-07T10:19:43.570Z,20.80
2019-06-07T10:20:43.615Z,22.20
2019-06-07T10:21:43.572Z,23.20
2019-06-07T10:22:43.540Z,21.90
2019-06-07T10:23:43.517Z,22.80
2019-06-07T10:24:43.535Z,22.50
2019-06-07T10:25:43.514Z,21.90
2019-06-07T10:26:43.482Z,22.80
2019-06-07T10:27:43.470Z,22.70
2019-06-07T10:28:43.444Z,23.50
2019-06-07T10:29:43.443Z,22.50
2019-06-07T10:30:43.416Z,23.80
2019-06-07T10:31:43.439Z,22.60
2019-06-07T10:32:43.408Z,22.50
2019-06-07T10:33:43.426Z,23.00
2019-06-07T10:34:43.394Z,22.40
2019-06-07T10:35:43.357Z,20.80
2019-06-07T10:36:43.443Z,21.00
2019-06-07T10:37:43.333Z,21.40
2019-06-07T10:38:43.340Z,21.10
2019-06-07T10:39:48.485Z,21.30
2019-06-07T10:40:43.300Z,21.50
2019-06-07T10:41:43.306Z,22.10
2019-06-07T10:42:43.286Z,21.80
2019-06-07T10:43:43.253Z,21.50
2019-06-07T10:44:43.254Z,22.50
2019-06-07T10:45:43.249Z,22.90
2019-06-07T10:46:43.233Z,21.40
2019-06-07T10:47:43.200Z,21.10
2019-06-07T10:48:43.176Z,20.90
2019-06-07T10:49:43.205Z,19.60
2019-06-07T10:50:43.172Z,20.30
2019-06-07T10:51:43.158Z,19.10
2019-06-07T10:52:43.127Z,19.30
2019-06-07T10:53:43.108Z,17.60
2019-06-07T10:54:43.127Z,18.10
2019-06-07T10:55:43.107Z,18.00
2019-06-07T10:56:43.120Z,17.80
2019-06-07T10:57:43.079Z,16.70
2019-06-07T10:58:43.060Z,17.10
2019-06-07T10:59:43.021Z,17.80
2019-06-07T11:00:43.037Z,18.70
2019-06-07T11:01:43.017Z,19.40
2019-06-07T11:02:43.062Z,16.10
2019-06-07T11:03:43.015Z,14.60
2019-06-07T11:04:42.983Z,15.50
2019-06-07T11:05:42.961Z,16.50
2019-06-07T11:06:42.961Z,16.30
2019-06-07T11:07:42.936Z,16.10
2019-06-07T11:08:42.912Z,16.50
2019-06-07T11:09:42.907Z,16.30
2019-06-07T11:10:42.938Z,15.30
2019-06-07T11:11:42.898Z,14.40
2019-06-07T11:12:42.863Z,15.50
2019-06-07T11:13:42.847Z,15.50
2019-06-07T11:14:42.852Z,16.10
2019-06-07T11:15:42.829Z,14.60
2019-06-07T11:16:42.807Z,14.50
2019-06-07T11:17:42.839Z,14.70
2019-06-07T11:18:42.793Z,15.70
2019-06-07T11:19:42.781Z,15.10
2019-06-07T11:20:42.759Z,16.70
2019-06-07T11:21:42.758Z,16.40
2019-06-07T11:22:42.752Z,16.40
2019-06-07T11:23:42.731Z,15.20
2019-06-07T11:24:42.723Z,14.70
2019-06-07T11:25:42.679Z,13.40
2019-06-07T11:26:42.686Z,14.10
2019-06-07T11:27:42.681Z,15.00
2019-06-07T11:28:42.680Z,14.30
2019-06-07T11:29:42.647Z,13.30
2019-06-07T11:30:42.641Z,14.60
2019-06-07T11:31:42.598Z,14.90
2019-06-07T11:32:42.607Z,14.00
2019-06-07T11:33:42.614Z,13.40
2019-06-07T11:34:42.588Z,12.50
2019-06-07T11:35:42.567Z,12.70
2019-06-07T11:36:42.556Z,13.30
2019-06-07T11:37:42.552Z,12.30
2019-06-07T11:38:42.541Z,11.20
2019-06-07T11:39:42.528Z,10.10
2019-06-07T11:40:42.503Z,10.30
2019-06-07T11:41:42.478Z,9.70
2019-06-07T11:42:42.470Z,10.30
2019-06-07T11:43:42.465Z,11.10
2019-06-07T11:44:55.665Z,9.20
2019-06-07T11:45:42.659Z,9.80
2019-06-07T11:46:42.421Z,9.60
2019-06-07T11:47:42.411Z,9.90
2019-06-07T11:48:42.417Z,9.70
2019-06-07T11:49:42.391Z,11.20
2019-06-07T11:50:42.383Z,9.60
2019-06-07T11:51:42.379Z,10.00
2019-06-07T11:52:45.436Z,8.50
2019-06-07T11:53:42.368Z,9.20
2019-06-07T11:54:42.350Z,8.90
2019-06-07T11:55:42.328Z,10.30
2019-06-07T11:56:42.319Z,9.50
2019-06-07T11:57:42.326Z,9.10
2019-06-07T11:58:42.289Z,8.10
2019-06-07T11:59:42.263Z,9.00
2019-06-07T12:00:42.275Z,9.10
2019-06-07T12:01:42.248Z,9.70
2019-06-07T12:02:42.254Z,8.00
2019-06-07T12:03:42.242Z,9.80
2019-06-07T12:04:42.238Z,6.70
2019-06-07T12:05:42.226Z,7.00
2019-06-07T12:06:42.196Z,6.90
2019-06-07T12:07:42.244Z,6.50
2019-06-07T12:08:42.175Z,6.90
2019-06-07T12:09:55.508Z,6.90
2019-06-07T12:10:42.855Z,6.80
2019-06-07T12:11:42.144Z,6.50
2019-06-07T12:12:42.155Z,7.10
2019-06-07T12:13:42.124Z,6.20
2019-06-07T12:14:42.123Z,7.00
2019-06-07T12:15:42.375Z,6.70
2019-06-07T12:16:42.124Z,6.20
2019-06-07T12:17:42.163Z,6.90
2019-06-07T12:18:42.100Z,6.20
2019-06-07T12:19:42.085Z,5.60
2019-06-07T12:20:42.076Z,6.90
2019-06-07T12:21:42.059Z,5.80
2019-06-07T12:22:42.062Z,5.80
2019-06-07T12:23:42.033Z,6.30
2019-06-07T12:24:42.024Z,6.50
2019-06-07T12:25:42.049Z,6.40
2019-06-07T12:26:42.032Z,7.50
2019-06-07T12:27:42.015Z,6.30
2019-06-07T12:28:41.981Z,5.80
2019-06-07T12:29:41.983Z,6.80
2019-06-07T12:30:41.989Z,6.40
2019-06-07T12:31:41.979Z,6.10
2019-06-07T12:32:41.962Z,5.30
2019-06-07T12:33:41.964Z,5.40
2019-06-07T12:34:41.990Z,6.70
2019-06-07T12:35:41.977Z,6.10
2019-06-07T12:36:41.918Z,5.70
2019-06-07T12:37:44.558Z,4.90
2019-06-07T12:38:41.906Z,6.10
2019-06-07T12:39:41.931Z,5.10
2019-06-07T12:40:54.543Z,6.90
2019-06-07T12:41:41.867Z,5.50
2019-06-07T12:42:41.875Z,4.70
2019-06-07T12:43:41.859Z,5.80
2019-06-07T12:44:41.853Z,6.50
2019-06-07T12:45:45.275Z,5.40
2019-06-07T12:46:41.837Z,4.80
2019-06-07T12:47:41.835Z,5.10
2019-06-07T12:48:41.826Z,4.80
2019-06-07T12:49:41.813Z,5.10
2019-06-07T12:50:43.192Z,5.60
2019-06-07T12:51:41.832Z,5.50
2019-06-07T12:52:41.794Z,5.10
2019-06-07T12:53:41.804Z,4.80
2019-06-07T12:54:41.771Z,5.60
2019-06-07T12:55:41.742Z,8.00
2019-06-07T12:56:41.783Z,6.50
2019-06-07T12:57:41.719Z,6.40
2019-06-07T12:58:41.824Z,7.40
2019-06-07T12:59:41.729Z,6.70
2019-06-07T13:00:41.711Z,5.70
2019-06-07T13:01:41.704Z,6.00
2019-06-07T13:02:41.711Z,5.80
2019-06-07T13:03:41.682Z,5.70
2019-06-07T13:04:42.128Z,5.80
2019-06-07T13:05:41.655Z,5.30